»·PEaware :: N172TT KVNY-KBFL

N172TT :: KVNY-KBFL

FLIGHT INFORMATION

Flight Status: Arrived
Operator: Privately registered:
United States
More flights under this callsign
Pilot: Thomas T. (19955)
Aircraft: CESSNA 172 SKYHAWK
(C172)
More flights by this aircraft type
Origin: KVNY Van Nuys
United States
Destination: KBFL Meadows
United States
More flights between these airports :: More routes between these airports
Route: +CANOGA2 GMN
File this flight plan on PilotEdge
Remarks: IFR TRAINING FLIGHT
Altitude:
(Current/Filed)
7,000ft
Speed:
(Current/Filed)
118kts
Departed: 06-Oct-18 01:07 PM
Arrived: 06-Oct-18 02:09 PM
Distance/Time
Traveled:
79nm/1:02
Distance/Time
To Go:
Arrived

Flight Plot

Page will automatically refresh every two minutes.

Flight plan parsing failed; only flown route is shown


Map Options




Map Legend


Flown Route
Filed Route
Departure Airport
Arrival Airport
Navaid (VOR, NDB)
Fix

Horizontal Profiles

Position Reports

Time Latitude Longitude Heading Altitude Ground
Speed
06-Oct-18 12:33 34.207527 -118.493281 179 806ft 0kts
06-Oct-18 12:34 34.207527 -118.493281 179 806ft 0kts
06-Oct-18 12:35 34.207527 -118.493281 179 806ft 0kts
06-Oct-18 12:36 34.207527 -118.493281 179 806ft 0kts
06-Oct-18 12:37 34.207527 -118.493281 179 806ft 0kts
06-Oct-18 12:38 34.207527 -118.493281 179 806ft 0kts
06-Oct-18 12:39 34.207527 -118.493281 179 806ft 0kts
06-Oct-18 12:40 34.207527 -118.493281 179 806ft 0kts
06-Oct-18 12:41 34.207527 -118.493281 179 806ft 0kts
06-Oct-18 12:42 34.207527 -118.493281 179 806ft 0kts
06-Oct-18 12:43 34.207527 -118.493281 179 806ft 0kts
06-Oct-18 12:44 34.207527 -118.493281 179 806ft 0kts
06-Oct-18 12:45 34.207527 -118.493281 179 806ft 0kts
06-Oct-18 12:46 34.207527 -118.493281 179 806ft 0kts
06-Oct-18 12:47 34.207527 -118.493281 179 806ft 0kts
06-Oct-18 12:48 34.207527 -118.493281 179 806ft 0kts
06-Oct-18 12:49 34.207527 -118.493281 179 806ft 0kts
06-Oct-18 12:50 34.207527 -118.493281 179 806ft 0kts
06-Oct-18 12:51 34.207527 -118.493281 179 806ft 0kts
06-Oct-18 12:52 34.207527 -118.493281 179 806ft 0kts
06-Oct-18 12:53 34.207527 -118.493281 179 806ft 0kts
06-Oct-18 12:54 34.207527 -118.493281 179 806ft 0kts
06-Oct-18 12:55 34.207527 -118.493281 179 806ft 0kts
06-Oct-18 12:56 34.207527 -118.493281 179 806ft 0kts
06-Oct-18 12:57 34.206623 -118.491700 79 806ft 9kts
06-Oct-18 12:58 34.210632 -118.491663 353 806ft 21kts
06-Oct-18 12:59 34.215365 -118.492175 353 806ft 13kts
06-Oct-18 13:00 34.218625 -118.492442 350 806ft 11kts
06-Oct-18 13:01 34.219597 -118.492333 157 806ft 0kts
06-Oct-18 13:02 34.219597 -118.492333 157 806ft 0kts
06-Oct-18 13:03 34.219597 -118.492333 157 806ft 0kts
06-Oct-18 13:04 34.219597 -118.492333 157 806ft 0kts
06-Oct-18 13:05 34.219597 -118.492333 157 806ft 0kts
06-Oct-18 13:06 34.219597 -118.492333 157 806ft 0kts
06-Oct-18 13:07 34.219597 -118.492333 157 806ft 0kts
06-Oct-18 13:08 34.217672 -118.491118 174 806ft 39kts
06-Oct-18 13:09 34.195951 -118.489355 175 1312ft 89kts
06-Oct-18 13:10 34.175049 -118.500520 227 1987ft 93kts
06-Oct-18 13:11 34.155825 -118.524678 228 2689ft 103kts
06-Oct-18 13:12 34.133441 -118.543141 164 3388ft 108kts
06-Oct-18 13:13 34.107427 -118.524692 154 4080ft 108kts
06-Oct-18 13:14 34.098141 -118.540961 324 4730ft 98kts
06-Oct-18 13:15 34.125934 -118.541257 353 5409ft 98kts
06-Oct-18 13:16 34.152089 -118.542842 345 6098ft 90kts
06-Oct-18 13:17 34.176828 -118.540274 355 6785ft 86kts
06-Oct-18 13:18 34.203674 -118.537961 355 6990ft 111kts
06-Oct-18 13:19 34.230660 -118.546237 335 7364ft 95kts
06-Oct-18 13:20 34.253814 -118.558838 335 7762ft 91kts
06-Oct-18 13:21 34.276628 -118.571274 336 8160ft 89kts
06-Oct-18 13:22 34.299263 -118.583630 336 8562ft 90kts
06-Oct-18 13:23 34.322011 -118.596045 336 9006ft 87kts
06-Oct-18 13:24 34.343565 -118.607761 325 9496ft 84kts
06-Oct-18 13:25 34.365094 -118.619595 325 9977ft 86kts
06-Oct-18 13:26 34.386711 -118.631407 325 10457ft 84kts
06-Oct-18 13:27 34.407991 -118.643086 326 10829ft 91kts
06-Oct-18 13:28 34.431831 -118.655990 326 10826ft 95kts
06-Oct-18 13:29 34.454958 -118.668652 326 10835ft 89kts
06-Oct-18 13:30 34.477222 -118.680860 325 10845ft 88kts
06-Oct-18 13:31 34.499359 -118.692998 326 10855ft 87kts
06-Oct-18 13:32 34.521335 -118.705113 326 10998ft 91kts
06-Oct-18 13:33 34.544088 -118.717540 326 11006ft 89kts
06-Oct-18 13:34 34.566647 -118.729929 326 11014ft 89kts
06-Oct-18 13:35 34.589108 -118.742271 326 11021ft 88kts
06-Oct-18 13:36 34.611373 -118.754512 327 11027ft 87kts
06-Oct-18 13:37 34.633523 -118.766698 327 11032ft 87kts
06-Oct-18 13:38 34.655803 -118.778245 327 11035ft 86kts
06-Oct-18 13:39 34.677590 -118.790280 327 11038ft 86kts
06-Oct-18 13:40 34.699202 -118.802303 327 11039ft 85kts
06-Oct-18 13:41 34.720740 -118.814296 327 11039ft 84kts
06-Oct-18 13:42 34.741873 -118.826070 328 11038ft 84kts
06-Oct-18 13:43 34.763121 -118.837916 328 11036ft 84kts
06-Oct-18 13:44 34.784283 -118.849718 328 11033ft 83kts
06-Oct-18 13:45 34.805843 -118.858903 357 11025ft 92kts
06-Oct-18 13:46 34.834314 -118.850994 1 10546ft 112kts
06-Oct-18 13:47 34.865021 -118.842290 1 10041ft 114kts
06-Oct-18 13:48 34.895952 -118.833612 1 9536ft 115kts
06-Oct-18 13:49 34.927756 -118.824745 3 8971ft 123kts
06-Oct-18 13:50 34.961041 -118.815391 4 8275ft 124kts
06-Oct-18 13:51 34.994874 -118.806181 4 7575ft 125kts
06-Oct-18 13:52 35.028810 -118.797454 5 6874ft 127kts
06-Oct-18 13:53 35.062020 -118.793132 331 6175ft 115kts
06-Oct-18 13:54 35.089942 -118.810758 327 5481ft 113kts
06-Oct-18 13:55 35.116472 -118.828354 327 4808ft 113kts
06-Oct-18 13:56 35.141841 -118.845621 327 4595ft 92kts
06-Oct-18 13:57 35.164954 -118.861665 327 4602ft 98kts
06-Oct-18 13:58 35.189848 -118.876881 333 4606ft 101kts
06-Oct-18 13:59 35.215587 -118.890893 333 4609ft 102kts
06-Oct-18 14:00 35.241507 -118.904993 333 4612ft 102kts
06-Oct-18 14:01 35.269209 -118.911120 356 4612ft 102kts
06-Oct-18 14:02 35.298087 -118.910854 356 4210ft 103kts
06-Oct-18 14:03 35.322464 -118.921284 318 3616ft 94kts
06-Oct-18 14:04 35.340577 -118.943469 313 3074ft 90kts
06-Oct-18 14:05 35.358026 -118.964698 317 2549ft 87kts
06-Oct-18 14:06 35.373935 -118.983124 312 2123ft 73kts
06-Oct-18 14:07 35.387210 -119.000714 314 1694ft 67kts
06-Oct-18 14:08 35.399702 -119.015063 315 1403ft 57kts
06-Oct-18 14:09 35.411035 -119.028532 313 1113ft 61kts
06-Oct-18 14:10 35.423554 -119.043875 314 783ft 66kts
06-Oct-18 14:11 35.434919 -119.057485 316 497ft 28kts
06-Oct-18 14:12 35.435833 -119.056352 132 497ft 16kts
06-Oct-18 14:13 35.436693 -119.054502 294 497ft 0kts
06-Oct-18 14:14 35.436693 -119.054502 294 497ft 0kts
06-Oct-18 14:15 35.436693 -119.054502 294 497ft 0kts

Navigation Log

Ident Type
Flight plan parsing failed, navigation log unavailable